createdAt,value
2022-11-26T11:44:38.536Z,8.32
2022-11-26T11:49:43.914Z,8.21
2022-11-26T11:54:48.365Z,8.19
2022-11-26T12:00:12.080Z,8.74
2022-11-26T12:05:30.488Z,8.73
2022-11-26T12:10:36.118Z,9.42
2022-11-26T12:15:38.702Z,10.95
2022-11-26T12:20:40.631Z,11.76
2022-11-26T12:25:39.355Z,11.27
2022-11-26T12:30:41.522Z,11.84
2022-11-26T12:35:41.238Z,11.87
2022-11-26T12:40:43.156Z,10.84
2022-11-26T12:45:46.682Z,12.24
2022-11-26T12:50:48.209Z,12.73
2022-11-26T12:55:50.367Z,12.36
2022-11-26T13:00:54.896Z,11.15
2022-11-26T13:05:55.594Z,10.04
2022-11-26T13:11:00.742Z,9.73
2022-11-26T13:16:03.859Z,9.54
2022-11-26T13:21:19.593Z,9.50
2022-11-26T13:26:33.632Z,8.62
2022-11-26T13:31:44.307Z,8.36
2022-11-26T13:36:51.831Z,8.19
2022-11-26T13:42:01.250Z,8.14
2022-11-26T13:47:02.809Z,8.08
2022-11-26T13:52:02.711Z,8.06
2022-11-26T13:57:02.093Z,8.00
2022-11-26T14:02:21.478Z,7.95
2022-11-26T14:07:20.775Z,7.88
2022-11-26T14:12:19.348Z,7.75
2022-11-26T14:17:20.133Z,7.59
2022-11-26T14:22:28.417Z,7.60
2022-11-26T14:27:27.983Z,7.45
2022-11-26T14:32:30.215Z,7.26
2022-11-26T14:37:29.457Z,7.38
2022-11-26T14:42:28.420Z,7.28
2022-11-26T14:47:28.182Z,7.23
2022-11-26T14:52:27.777Z,6.98
2022-11-26T14:57:27.492Z,6.89
2022-11-26T15:02:26.313Z,7.03
2022-11-26T15:07:26.652Z,6.94
2022-11-26T15:12:24.836Z,6.86
2022-11-26T15:17:25.377Z,6.68
2022-11-26T15:22:26.336Z,6.70
2022-11-26T15:27:37.288Z,6.69
2022-11-26T15:32:35.821Z,6.54
2022-11-26T15:37:35.259Z,6.38
2022-11-26T15:42:35.037Z,6.63
2022-11-26T15:47:33.052Z,6.42
2022-11-26T15:52:33.521Z,6.41
2022-11-26T15:57:34.295Z,6.25
2022-11-26T16:02:33.998Z,6.28
2022-11-26T16:07:33.008Z,6.47
2022-11-26T16:12:33.065Z,6.67
2022-11-26T16:17:31.090Z,6.79
2022-11-26T16:22:33.915Z,6.78
2022-11-26T16:27:33.636Z,6.68
2022-11-26T16:32:31.876Z,6.53
2022-11-26T16:37:32.211Z,6.55
2022-11-26T16:42:31.563Z,6.61
2022-11-26T16:47:32.072Z,6.66
2022-11-26T16:52:32.600Z,6.40
2022-11-26T16:57:30.708Z,6.44
2022-11-26T17:02:29.409Z,6.58
2022-11-26T17:07:30.520Z,6.51
2022-11-26T17:12:31.166Z,6.51
2022-11-26T17:17:32.059Z,6.44
2022-11-26T17:22:31.064Z,6.30
2022-11-26T17:27:30.491Z,6.28
2022-11-26T17:32:28.507Z,6.28
2022-11-26T17:37:27.605Z,6.22
2022-11-26T17:42:26.039Z,6.21
2022-11-26T17:47:26.424Z,5.81
2022-11-26T17:52:27.519Z,5.85
2022-11-26T17:57:29.033Z,5.88
2022-11-26T18:02:30.965Z,5.72
2022-11-26T18:07:29.969Z,5.70
2022-11-26T18:12:28.792Z,5.87
2022-11-26T18:17:28.123Z,5.84
2022-11-26T18:22:27.265Z,5.88
2022-11-26T18:27:26.430Z,5.78
2022-11-26T18:32:24.599Z,5.44
2022-11-26T18:37:26.229Z,5.37
2022-11-26T18:42:39.759Z,5.62
2022-11-26T18:47:38.331Z,5.56
2022-11-26T18:52:38.169Z,5.54
2022-11-26T18:57:36.787Z,5.42
2022-11-26T19:02:34.864Z,5.21
2022-11-26T19:07:33.758Z,5.16
2022-11-26T19:12:35.588Z,5.09
2022-11-26T19:17:33.709Z,4.85
2022-11-26T19:22:31.912Z,4.56
2022-11-26T19:27:30.144Z,4.56
2022-11-26T19:32:45.603Z,4.70
2022-11-26T19:37:48.985Z,4.57
2022-11-26T19:42:47.962Z,4.58
2022-11-26T19:47:50.719Z,4.68
2022-11-26T19:52:48.812Z,4.25
2022-11-26T19:57:46.804Z,4.41
2022-11-26T20:02:44.942Z,4.18
2022-11-26T20:07:45.377Z,4.23
2022-11-26T20:12:49.308Z,4.24
2022-11-26T20:17:48.642Z,4.11
2022-11-26T20:22:47.888Z,4.33
2022-11-26T20:27:46.489Z,4.32
2022-11-26T20:32:58.609Z,4.54
2022-11-26T20:38:01.163Z,4.44
2022-11-26T20:43:00.601Z,4.08
2022-11-26T20:47:59.141Z,4.43
2022-11-26T20:52:58.700Z,4.39
2022-11-26T20:57:56.824Z,4.31
2022-11-26T21:02:55.983Z,4.44
2022-11-26T21:07:54.709Z,4.75
2022-11-26T21:12:54.496Z,4.93
2022-11-26T21:17:52.752Z,5.08
2022-11-26T21:22:53.312Z,5.00
2022-11-26T21:27:55.571Z,5.00
2022-11-26T21:32:57.056Z,5.07
2022-11-26T21:37:56.009Z,4.98
2022-11-26T21:42:56.187Z,4.94
2022-11-26T21:47:56.486Z,4.94
2022-11-26T21:52:54.882Z,5.01
2022-11-26T21:57:53.541Z,4.81
2022-11-26T22:02:52.642Z,4.64
2022-11-26T22:07:51.999Z,4.13
2022-11-26T22:12:50.632Z,3.91
2022-11-26T22:17:48.570Z,3.82
2022-11-26T22:22:46.839Z,3.70
2022-11-26T22:27:46.408Z,4.05
2022-11-26T22:32:44.252Z,4.09
2022-11-26T22:37:42.170Z,3.78
2022-11-26T22:42:43.672Z,3.66
2022-11-26T22:47:49.843Z,3.72
2022-11-26T22:52:54.811Z,3.72
2022-11-26T22:57:53.560Z,3.48
2022-11-26T23:02:53.185Z,3.28
2022-11-26T23:07:51.952Z,3.14
2022-11-26T23:12:50.275Z,2.77
2022-11-26T23:17:48.452Z,2.75
2022-11-26T23:22:48.988Z,2.56
2022-11-26T23:27:49.959Z,2.30
2022-11-26T23:32:48.000Z,2.31
2022-11-26T23:37:47.248Z,2.04
2022-11-26T23:42:46.587Z,1.74
2022-11-26T23:47:45.630Z,1.52
2022-11-26T23:52:43.592Z,1.76
2022-11-26T23:57:44.592Z,2.16
